sensor_id;sensor_type;location;lat;lon;timestamp;pressure;altitude;pressure_sealevel;temperature
11849;BMP180;5983;49.966;8.052;2023-07-13T00:01:20;100526.00;;;19.50
11849;BMP180;5983;49.966;8.052;2023-07-13T00:03:49;100529.00;;;19.50
11849;BMP180;5983;49.966;8.052;2023-07-13T00:06:16;100528.00;;;19.50
11849;BMP180;5983;49.966;8.052;2023-07-13T00:08:43;100520.00;;;19.40
11849;BMP180;5983;49.966;8.052;2023-07-13T00:11:09;100526.00;;;19.40
11849;BMP180;5983;49.966;8.052;2023-07-13T00:13:36;100524.00;;;19.40
11849;BMP180;5983;49.966;8.052;2023-07-13T00:19:27;100531.00;;;19.40
11849;BMP180;5983;49.966;8.052;2023-07-13T00:21:54;100519.00;;;19.40
11849;BMP180;5983;49.966;8.052;2023-07-13T00:24:21;100516.00;;;19.40
11849;BMP180;5983;49.966;8.052;2023-07-13T00:26:49;100526.00;;;19.30
11849;BMP180;5983;49.966;8.052;2023-07-13T00:29:16;100531.00;;;19.40
11849;BMP180;5983;49.966;8.052;2023-07-13T00:31:43;100525.00;;;19.30
11849;BMP180;5983;49.966;8.052;2023-07-13T00:34:10;100527.00;;;19.30
11849;BMP180;5983;49.966;8.052;2023-07-13T00:36:38;100530.00;;;19.30
11849;BMP180;5983;49.966;8.052;2023-07-13T00:39:05;100536.00;;;19.20
11849;BMP180;5983;49.966;8.052;2023-07-13T00:41:32;100539.00;;;19.20
11849;BMP180;5983;49.966;8.052;2023-07-13T00:47:20;100533.00;;;19.00
11849;BMP180;5983;49.966;8.052;2023-07-13T00:49:47;100545.00;;;18.90
11849;BMP180;5983;49.966;8.052;2023-07-13T00:52:15;100547.00;;;19.00
11849;BMP180;5983;49.966;8.052;2023-07-13T00:54:45;100548.00;;;18.90
11849;BMP180;5983;49.966;8.052;2023-07-13T00:57:15;100555.00;;;18.90
11849;BMP180;5983;49.966;8.052;2023-07-13T00:59:46;100559.00;;;18.90
11849;BMP180;5983;49.966;8.052;2023-07-13T01:02:13;100549.00;;;18.80
11849;BMP180;5983;49.966;8.052;2023-07-13T01:04:41;100559.00;;;18.70
11849;BMP180;5983;49.966;8.052;2023-07-13T01:07:11;100555.00;;;18.70
11849;BMP180;5983;49.966;8.052;2023-07-13T01:09:40;100553.00;;;18.60
11849;BMP180;5983;49.966;8.052;2023-07-13T01:12:07;100548.00;;;18.60
11849;BMP180;5983;49.966;8.052;2023-07-13T01:14:34;100553.00;;;18.60
11849;BMP180;5983;49.966;8.052;2023-07-13T01:17:01;100555.00;;;18.60
11849;BMP180;5983;49.966;8.052;2023-07-13T01:19:33;100547.00;;;18.60
11849;BMP180;5983;49.966;8.052;2023-07-13T01:22:04;100552.00;;;18.60
11849;BMP180;5983;49.966;8.052;2023-07-13T01:24:34;100552.00;;;18.70
11849;BMP180;5983;49.966;8.052;2023-07-13T01:27:02;100545.00;;;18.70
11849;BMP180;5983;49.966;8.052;2023-07-13T01:29:29;100552.00;;;18.70
11849;BMP180;5983;49.966;8.052;2023-07-13T01:31:56;100557.00;;;18.70
11849;BMP180;5983;49.966;8.052;2023-07-13T01:34:23;100557.00;;;18.80
11849;BMP180;5983;49.966;8.052;2023-07-13T01:36:50;100541.00;;;18.80
11849;BMP180;5983;49.966;8.052;2023-07-13T01:39:20;100550.00;;;18.70
11849;BMP180;5983;49.966;8.052;2023-07-13T01:41:47;100548.00;;;18.70
11849;BMP180;5983;49.966;8.052;2023-07-13T01:44:14;100549.00;;;18.80
11849;BMP180;5983;49.966;8.052;2023-07-13T01:46:41;100555.00;;;18.80
11849;BMP180;5983;49.966;8.052;2023-07-13T01:49:07;100548.00;;;18.80
11849;BMP180;5983;49.966;8.052;2023-07-13T01:51:34;100551.00;;;18.80
11849;BMP180;5983;49.966;8.052;2023-07-13T01:54:01;100554.00;;;18.80
11849;BMP180;5983;49.966;8.052;2023-07-13T01:56:29;100555.00;;;18.70
11849;BMP180;5983;49.966;8.052;2023-07-13T01:58:56;100551.00;;;18.70
11849;BMP180;5983;49.966;8.052;2023-07-13T02:01:23;100550.00;;;18.60
11849;BMP180;5983;49.966;8.052;2023-07-13T02:03:49;100558.00;;;18.50
11849;BMP180;5983;49.966;8.052;2023-07-13T02:06:17;100557.00;;;18.50
11849;BMP180;5983;49.966;8.052;2023-07-13T02:08:43;100569.00;;;18.40
11849;BMP180;5983;49.966;8.052;2023-07-13T02:11:10;100561.00;;;18.40
11849;BMP180;5983;49.966;8.052;2023-07-13T02:13:39;100569.00;;;18.40
11849;BMP180;5983;49.966;8.052;2023-07-13T02:16:06;100562.00;;;18.40
11849;BMP180;5983;49.966;8.052;2023-07-13T02:18:33;100572.00;;;18.30
11849;BMP180;5983;49.966;8.052;2023-07-13T02:20:59;100582.00;;;18.30
11849;BMP180;5983;49.966;8.052;2023-07-13T02:23:26;100575.00;;;18.20
11849;BMP180;5983;49.966;8.052;2023-07-13T02:25:54;100569.00;;;18.10
11849;BMP180;5983;49.966;8.052;2023-07-13T02:28:21;100572.00;;;18.10
11849;BMP180;5983;49.966;8.052;2023-07-13T02:30:49;100566.00;;;18.00
11849;BMP180;5983;49.966;8.052;2023-07-13T02:33:16;100564.00;;;18.00
11849;BMP180;5983;49.966;8.052;2023-07-13T02:35:43;100570.00;;;17.90
11849;BMP180;5983;49.966;8.052;2023-07-13T02:38:10;100571.00;;;18.00
11849;BMP180;5983;49.966;8.052;2023-07-13T02:40:36;100575.00;;;17.90
11849;BMP180;5983;49.966;8.052;2023-07-13T02:43:03;100564.00;;;17.90
11849;BMP180;5983;49.966;8.052;2023-07-13T02:45:30;100569.00;;;17.80
11849;BMP180;5983;49.966;8.052;2023-07-13T02:47:58;100572.00;;;17.70
11849;BMP180;5983;49.966;8.052;2023-07-13T02:50:25;100576.00;;;17.60
11849;BMP180;5983;49.966;8.052;2023-07-13T02:52:52;100583.00;;;17.50
11849;BMP180;5983;49.966;8.052;2023-07-13T02:55:19;100581.00;;;17.40
11849;BMP180;5983;49.966;8.052;2023-07-13T02:57:45;100587.00;;;17.30
11849;BMP180;5983;49.966;8.052;2023-07-13T03:00:12;100583.00;;;17.30
11849;BMP180;5983;49.966;8.052;2023-07-13T03:02:41;100580.00;;;17.20
11849;BMP180;5983;49.966;8.052;2023-07-13T03:05:10;100577.00;;;17.20
11849;BMP180;5983;49.966;8.052;2023-07-13T03:07:38;100569.00;;;17.20
11849;BMP180;5983;49.966;8.052;2023-07-13T03:10:06;100576.00;;;17.10
11849;BMP180;5983;49.966;8.052;2023-07-13T03:12:33;100571.00;;;17.10
11849;BMP180;5983;49.966;8.052;2023-07-13T03:15:00;100570.00;;;17.10
11849;BMP180;5983;49.966;8.052;2023-07-13T03:17:27;100580.00;;;17.10
11849;BMP180;5983;49.966;8.052;2023-07-13T03:19:53;100577.00;;;17.10
11849;BMP180;5983;49.966;8.052;2023-07-13T03:22:21;100575.00;;;17.00
11849;BMP180;5983;49.966;8.052;2023-07-13T03:24:48;100580.00;;;17.00
11849;BMP180;5983;49.966;8.052;2023-07-13T03:27:15;100583.00;;;17.00
11849;BMP180;5983;49.966;8.052;2023-07-13T03:29:42;100592.00;;;16.90
11849;BMP180;5983;49.966;8.052;2023-07-13T03:32:09;100587.00;;;17.00
11849;BMP180;5983;49.966;8.052;2023-07-13T03:34:36;100589.00;;;16.90
11849;BMP180;5983;49.966;8.052;2023-07-13T03:37:03;100587.00;;;16.90
11849;BMP180;5983;49.966;8.052;2023-07-13T03:39:31;100591.00;;;16.90
11849;BMP180;5983;49.966;8.052;2023-07-13T03:41:58;100602.00;;;16.90
11849;BMP180;5983;49.966;8.052;2023-07-13T03:44:25;100602.00;;;16.90
11849;BMP180;5983;49.966;8.052;2023-07-13T03:46:51;100604.00;;;16.90
11849;BMP180;5983;49.966;8.052;2023-07-13T03:49:18;100611.00;;;16.90
11849;BMP180;5983;49.966;8.052;2023-07-13T03:51:45;100609.00;;;16.80
11849;BMP180;5983;49.966;8.052;2023-07-13T03:54:12;100605.00;;;16.80
11849;BMP180;5983;49.966;8.052;2023-07-13T03:56:40;100612.00;;;16.90
11849;BMP180;5983;49.966;8.052;2023-07-13T03:59:07;100615.00;;;16.90
11849;BMP180;5983;49.966;8.052;2023-07-13T04:01:34;100619.00;;;17.00
11849;BMP180;5983;49.966;8.052;2023-07-13T04:04:00;100613.00;;;17.00
11849;BMP180;5983;49.966;8.052;2023-07-13T04:06:29;100613.00;;;17.10
11849;BMP180;5983;49.966;8.052;2023-07-13T04:08:57;100615.00;;;17.20
11849;BMP180;5983;49.966;8.052;2023-07-13T04:11:27;100617.00;;;17.30
11849;BMP180;5983;49.966;8.052;2023-07-13T04:13:56;100623.00;;;17.30
11849;BMP180;5983;49.966;8.052;2023-07-13T04:16:23;100612.00;;;17.40
11849;BMP180;5983;49.966;8.052;2023-07-13T04:18:50;100622.00;;;17.40
11849;BMP180;5983;49.966;8.052;2023-07-13T04:21:20;100617.00;;;17.50
11849;BMP180;5983;49.966;8.052;2023-07-13T04:23:47;100616.00;;;17.50
11849;BMP180;5983;49.966;8.052;2023-07-13T04:26:14;100623.00;;;17.70
11849;BMP180;5983;49.966;8.052;2023-07-13T04:28:40;100622.00;;;17.70
11849;BMP180;5983;49.966;8.052;2023-07-13T04:31:09;100628.00;;;17.80
11849;BMP180;5983;49.966;8.052;2023-07-13T04:33:35;100622.00;;;17.90
11849;BMP180;5983;49.966;8.052;2023-07-13T04:36:02;100629.00;;;18.00
11849;BMP180;5983;49.966;8.052;2023-07-13T04:38:30;100621.00;;;18.00
11849;BMP180;5983;49.966;8.052;2023-07-13T04:40:59;100629.00;;;18.00
11849;BMP180;5983;49.966;8.052;2023-07-13T04:43:27;100622.00;;;18.00
11849;BMP180;5983;49.966;8.052;2023-07-13T04:45:53;100621.00;;;18.00
11849;BMP180;5983;49.966;8.052;2023-07-13T04:48:23;100618.00;;;18.10
11849;BMP180;5983;49.966;8.052;2023-07-13T04:50:54;100622.00;;;18.20
11849;BMP180;5983;49.966;8.052;2023-07-13T04:53:22;100621.00;;;18.30
11849;BMP180;5983;49.966;8.052;2023-07-13T04:55:49;100625.00;;;18.40
11849;BMP180;5983;49.966;8.052;2023-07-13T04:58:16;100631.00;;;18.40
11849;BMP180;5983;49.966;8.052;2023-07-13T05:00:43;100624.00;;;18.50
11849;BMP180;5983;49.966;8.052;2023-07-13T05:03:10;100624.00;;;18.60
11849;BMP180;5983;49.966;8.052;2023-07-13T05:05:41;100627.00;;;18.70
11849;BMP180;5983;49.966;8.052;2023-07-13T05:08:10;100639.00;;;18.70
11849;BMP180;5983;49.966;8.052;2023-07-13T05:10:37;100622.00;;;18.70
11849;BMP180;5983;49.966;8.052;2023-07-13T05:13:06;100629.00;;;18.80
11849;BMP180;5983;49.966;8.052;2023-07-13T05:15:33;100641.00;;;18.80
11849;BMP180;5983;49.966;8.052;2023-07-13T05:18:00;100636.00;;;18.90
11849;BMP180;5983;49.966;8.052;2023-07-13T05:20:27;100650.00;;;19.00
11849;BMP180;5983;49.966;8.052;2023-07-13T05:22:55;100638.00;;;19.10
11849;BMP180;5983;49.966;8.052;2023-07-13T05:25:22;100646.00;;;19.00
11849;BMP180;5983;49.966;8.052;2023-07-13T05:27:49;100641.00;;;19.00
11849;BMP180;5983;49.966;8.052;2023-07-13T05:30:15;100652.00;;;19.10
11849;BMP180;5983;49.966;8.052;2023-07-13T05:32:42;100652.00;;;19.20
11849;BMP180;5983;49.966;8.052;2023-07-13T05:35:09;100655.00;;;19.40
11849;BMP180;5983;49.966;8.052;2023-07-13T05:37:37;100652.00;;;19.50
11849;BMP180;5983;49.966;8.052;2023-07-13T05:40:06;100659.00;;;19.60
11849;BMP180;5983;49.966;8.052;2023-07-13T05:42:33;100662.00;;;19.60
11849;BMP180;5983;49.966;8.052;2023-07-13T05:45:00;100658.00;;;19.60
11849;BMP180;5983;49.966;8.052;2023-07-13T05:47:27;100664.00;;;19.70
11849;BMP180;5983;49.966;8.052;2023-07-13T05:49:53;100656.00;;;19.80
11849;BMP180;5983;49.966;8.052;2023-07-13T05:52:20;100664.00;;;19.90
11849;BMP180;5983;49.966;8.052;2023-07-13T05:54:47;100649.00;;;20.00
11849;BMP180;5983;49.966;8.052;2023-07-13T05:57:15;100666.00;;;20.10
11849;BMP180;5983;49.966;8.052;2023-07-13T05:59:42;100662.00;;;20.20
11849;BMP180;5983;49.966;8.052;2023-07-13T06:02:09;100668.00;;;20.20
11849;BMP180;5983;49.966;8.052;2023-07-13T06:04:36;100665.00;;;20.30
11849;BMP180;5983;49.966;8.052;2023-07-13T06:07:03;100655.00;;;20.30
11849;BMP180;5983;49.966;8.052;2023-07-13T06:09:30;100664.00;;;20.30
11849;BMP180;5983;49.966;8.052;2023-07-13T06:11:57;100660.00;;;20.40
11849;BMP180;5983;49.966;8.052;2023-07-13T06:14:25;100665.00;;;20.40
11849;BMP180;5983;49.966;8.052;2023-07-13T06:16:52;100668.00;;;20.50
11849;BMP180;5983;49.966;8.052;2023-07-13T06:19:18;100662.00;;;20.60
11849;BMP180;5983;49.966;8.052;2023-07-13T06:21:45;100667.00;;;20.80
11849;BMP180;5983;49.966;8.052;2023-07-13T06:24:12;100672.00;;;20.80
11849;BMP180;5983;49.966;8.052;2023-07-13T06:26:39;100673.00;;;20.90
11849;BMP180;5983;49.966;8.052;2023-07-13T06:29:05;100659.00;;;21.00
11849;BMP180;5983;49.966;8.052;2023-07-13T06:31:33;100667.00;;;21.10
11849;BMP180;5983;49.966;8.052;2023-07-13T06:34:00;100670.00;;;21.20
11849;BMP180;5983;49.966;8.052;2023-07-13T06:36:27;100671.00;;;21.30
11849;BMP180;5983;49.966;8.052;2023-07-13T06:38:54;100676.00;;;21.30
11849;BMP180;5983;49.966;8.052;2023-07-13T06:41:21;100665.00;;;21.40
11849;BMP180;5983;49.966;8.052;2023-07-13T06:43:48;100678.00;;;21.50
11849;BMP180;5983;49.966;8.052;2023-07-13T06:46:14;100676.00;;;21.60
11849;BMP180;5983;49.966;8.052;2023-07-13T06:48:43;100680.00;;;21.70
11849;BMP180;5983;49.966;8.052;2023-07-13T06:51:09;100683.00;;;21.80
11849;BMP180;5983;49.966;8.052;2023-07-13T06:53:36;100680.00;;;21.90
11849;BMP180;5983;49.966;8.052;2023-07-13T06:56:03;100679.00;;;22.00
11849;BMP180;5983;49.966;8.052;2023-07-13T06:58:30;100676.00;;;22.10
11849;BMP180;5983;49.966;8.052;2023-07-13T07:00:57;100680.00;;;22.10
11849;BMP180;5983;49.966;8.052;2023-07-13T07:03:24;100689.00;;;22.20
11849;BMP180;5983;49.966;8.052;2023-07-13T07:05:52;100679.00;;;22.30
11849;BMP180;5983;49.966;8.052;2023-07-13T07:08:19;100687.00;;;22.40
11849;BMP180;5983;49.966;8.052;2023-07-13T07:10:46;100693.00;;;22.50
11849;BMP180;5983;49.966;8.052;2023-07-13T07:13:17;100690.00;;;22.60
11849;BMP180;5983;49.966;8.052;2023-07-13T07:15:43;100700.00;;;22.70
11849;BMP180;5983;49.966;8.052;2023-07-13T07:18:10;100692.00;;;22.70
11849;BMP180;5983;49.966;8.052;2023-07-13T07:20:37;100692.00;;;22.80
11849;BMP180;5983;49.966;8.052;2023-07-13T07:23:05;100696.00;;;22.90
11849;BMP180;5983;49.966;8.052;2023-07-13T07:25:32;100699.00;;;23.00
11849;BMP180;5983;49.966;8.052;2023-07-13T07:28:03;100712.00;;;23.10
11849;BMP180;5983;49.966;8.052;2023-07-13T07:30:29;100702.00;;;23.10
11849;BMP180;5983;49.966;8.052;2023-07-13T07:32:56;100715.00;;;23.20
11849;BMP180;5983;49.966;8.052;2023-07-13T07:35:23;100709.00;;;23.20
11849;BMP180;5983;49.966;8.052;2023-07-13T07:37:50;100707.00;;;23.30
11849;BMP180;5983;49.966;8.052;2023-07-13T07:40:18;100708.00;;;23.50
11849;BMP180;5983;49.966;8.052;2023-07-13T07:42:45;100709.00;;;23.50
11849;BMP180;5983;49.966;8.052;2023-07-13T07:45:12;100709.00;;;23.60
11849;BMP180;5983;49.966;8.052;2023-07-13T07:47:39;100715.00;;;23.70
11849;BMP180;5983;49.966;8.052;2023-07-13T07:50:07;100708.00;;;23.80
11849;BMP180;5983;49.966;8.052;2023-07-13T07:52:34;100722.00;;;23.90
11849;BMP180;5983;49.966;8.052;2023-07-13T07:55:01;100711.00;;;24.00
11849;BMP180;5983;49.966;8.052;2023-07-13T07:57:29;100714.00;;;24.00
11849;BMP180;5983;49.966;8.052;2023-07-13T07:59:55;100719.00;;;24.10
11849;BMP180;5983;49.966;8.052;2023-07-13T08:02:22;100716.00;;;24.20
11849;BMP180;5983;49.966;8.052;2023-07-13T08:04:49;100731.00;;;24.30
11849;BMP180;5983;49.966;8.052;2023-07-13T08:07:16;100727.00;;;24.30
11849;BMP180;5983;49.966;8.052;2023-07-13T08:09:42;100713.00;;;24.40
11849;BMP180;5983;49.966;8.052;2023-07-13T08:12:09;100720.00;;;24.30
11849;BMP180;5983;49.966;8.052;2023-07-13T08:14:37;100720.00;;;24.40
11849;BMP180;5983;49.966;8.052;2023-07-13T08:17:04;100722.00;;;24.50
11849;BMP180;5983;49.966;8.052;2023-07-13T08:19:31;100718.00;;;24.70
11849;BMP180;5983;49.966;8.052;2023-07-13T08:21:58;100716.00;;;24.80
11849;BMP180;5983;49.966;8.052;2023-07-13T08:24:25;100715.00;;;24.90
11849;BMP180;5983;49.966;8.052;2023-07-13T08:26:51;100712.00;;;25.10
11849;BMP180;5983;49.966;8.052;2023-07-13T08:29:18;100712.00;;;25.20
11849;BMP180;5983;49.966;8.052;2023-07-13T08:31:46;100718.00;;;25.20
11849;BMP180;5983;49.966;8.052;2023-07-13T08:34:13;100725.00;;;25.30
11849;BMP180;5983;49.966;8.052;2023-07-13T08:36:40;100720.00;;;25.40
11849;BMP180;5983;49.966;8.052;2023-07-13T08:39:07;100722.00;;;25.50
11849;BMP180;5983;49.966;8.052;2023-07-13T08:41:35;100732.00;;;25.60
11849;BMP180;5983;49.966;8.052;2023-07-13T08:44:04;100728.00;;;25.60
11849;BMP180;5983;49.966;8.052;2023-07-13T08:46:36;100718.00;;;25.70
11849;BMP180;5983;49.966;8.052;2023-07-13T08:49:09;100720.00;;;25.80
11849;BMP180;5983;49.966;8.052;2023-07-13T08:51:41;100719.00;;;25.80
11849;BMP180;5983;49.966;8.052;2023-07-13T08:54:16;100721.00;;;25.90
11849;BMP180;5983;49.966;8.052;2023-07-13T08:56:46;100712.00;;;26.00
11849;BMP180;5983;49.966;8.052;2023-07-13T08:59:15;100723.00;;;26.10
11849;BMP180;5983;49.966;8.052;2023-07-13T09:01:58;100726.00;;;26.30
11849;BMP180;5983;49.966;8.052;2023-07-13T09:04:33;100720.00;;;26.30
11849;BMP180;5983;49.966;8.052;2023-07-13T09:07:05;100726.00;;;26.50
11849;BMP180;5983;49.966;8.052;2023-07-13T09:09:44;100717.00;;;26.50
11849;BMP180;5983;49.966;8.052;2023-07-13T09:12:18;100717.00;;;26.60
11849;BMP180;5983;49.966;8.052;2023-07-13T09:14:48;100718.00;;;26.70
11849;BMP180;5983;49.966;8.052;2023-07-13T09:17:18;100725.00;;;26.90
11849;BMP180;5983;49.966;8.052;2023-07-13T09:19:51;100713.00;;;27.00
11849;BMP180;5983;49.966;8.052;2023-07-13T09:22:21;100715.00;;;27.00
11849;BMP180;5983;49.966;8.052;2023-07-13T09:24:55;100717.00;;;27.10
11849;BMP180;5983;49.966;8.052;2023-07-13T09:27:27;100713.00;;;27.10
11849;BMP180;5983;49.966;8.052;2023-07-13T09:30:02;100710.00;;;27.30
11849;BMP180;5983;49.966;8.052;2023-07-13T09:32:31;100713.00;;;27.50
11849;BMP180;5983;49.966;8.052;2023-07-13T09:35:00;100707.00;;;27.70
11849;BMP180;5983;49.966;8.052;2023-07-13T09:37:31;100713.00;;;28.00
11849;BMP180;5983;49.966;8.052;2023-07-13T09:40:01;100716.00;;;28.10
11849;BMP180;5983;49.966;8.052;2023-07-13T09:42:32;100709.00;;;28.20
11849;BMP180;5983;49.966;8.052;2023-07-13T09:45:00;100718.00;;;28.30
11849;BMP180;5983;49.966;8.052;2023-07-13T09:47:31;100710.00;;;28.10
11849;BMP180;5983;49.966;8.052;2023-07-13T09:50:01;100712.00;;;27.90
11849;BMP180;5983;49.966;8.052;2023-07-13T09:52:40;100716.00;;;27.90
11849;BMP180;5983;49.966;8.052;2023-07-13T09:55:23;100713.00;;;27.90
11849;BMP180;5983;49.966;8.052;2023-07-13T09:57:51;100719.00;;;28.00
11849;BMP180;5983;49.966;8.052;2023-07-13T10:00:23;100713.00;;;28.20
11849;BMP180;5983;49.966;8.052;2023-07-13T10:03:03;100717.00;;;28.10
11849;BMP180;5983;49.966;8.052;2023-07-13T10:05:43;100712.00;;;28.00
11849;BMP180;5983;49.966;8.052;2023-07-13T10:08:21;100715.00;;;28.30
11849;BMP180;5983;49.966;8.052;2023-07-13T10:10:53;100728.00;;;28.40
11849;BMP180;5983;49.966;8.052;2023-07-13T10:13:33;100727.00;;;28.30
11849;BMP180;5983;49.966;8.052;2023-07-13T10:16:04;100725.00;;;28.10
11849;BMP180;5983;49.966;8.052;2023-07-13T10:18:38;100719.00;;;27.90
11849;BMP180;5983;49.966;8.052;2023-07-13T10:21:19;100715.00;;;28.00
11849;BMP180;5983;49.966;8.052;2023-07-13T10:23:50;100716.00;;;28.00
11849;BMP180;5983;49.966;8.052;2023-07-13T10:26:23;100727.00;;;27.80
11849;BMP180;5983;49.966;8.052;2023-07-13T10:28:54;100718.00;;;27.60
11849;BMP180;5983;49.966;8.052;2023-07-13T10:31:22;100709.00;;;27.40
11849;BMP180;5983;49.966;8.052;2023-07-13T10:33:50;100722.00;;;27.30
11849;BMP180;5983;49.966;8.052;2023-07-13T10:36:30;100722.00;;;27.00
11849;BMP180;5983;49.966;8.052;2023-07-13T10:39:01;100721.00;;;26.80
11849;BMP180;5983;49.966;8.052;2023-07-13T10:41:33;100712.00;;;26.70
11849;BMP180;5983;49.966;8.052;2023-07-13T10:44:01;100715.00;;;26.70
11849;BMP180;5983;49.966;8.052;2023-07-13T10:46:31;100707.00;;;26.90
11849;BMP180;5983;49.966;8.052;2023-07-13T10:49:02;100713.00;;;27.20
11849;BMP180;5983;49.966;8.052;2023-07-13T10:51:33;100719.00;;;27.50
11849;BMP180;5983;49.966;8.052;2023-07-13T10:54:21;100721.00;;;27.80
11849;BMP180;5983;49.966;8.052;2023-07-13T10:57:10;100725.00;;;28.00
11849;BMP180;5983;49.966;8.052;2023-07-13T10:59:43;100719.00;;;28.30
11849;BMP180;5983;49.966;8.052;2023-07-13T11:02:25;100711.00;;;28.60
11849;BMP180;5983;49.966;8.052;2023-07-13T11:04:55;100715.00;;;28.70
11849;BMP180;5983;49.966;8.052;2023-07-13T11:07:28;100724.00;;;28.80
11849;BMP180;5983;49.966;8.052;2023-07-13T11:09:57;100719.00;;;28.70
11849;BMP180;5983;49.966;8.052;2023-07-13T11:12:50;100697.00;;;28.70
11849;BMP180;5983;49.966;8.052;2023-07-13T11:15:33;100722.00;;;28.70
11849;BMP180;5983;49.966;8.052;2023-07-13T11:18:21;100713.00;;;28.90
11849;BMP180;5983;49.966;8.052;2023-07-13T11:20:49;100718.00;;;28.90
11849;BMP180;5983;49.966;8.052;2023-07-13T11:23:29;100711.00;;;28.90
11849;BMP180;5983;49.966;8.052;2023-07-13T11:25:57;100708.00;;;28.80
11849;BMP180;5983;49.966;8.052;2023-07-13T11:28:30;100705.00;;;28.70
11849;BMP180;5983;49.966;8.052;2023-07-13T11:31:12;100713.00;;;28.50
11849;BMP180;5983;49.966;8.052;2023-07-13T11:33:52;100723.00;;;28.40
11849;BMP180;5983;49.966;8.052;2023-07-13T11:36:23;100725.00;;;28.30
11849;BMP180;5983;49.966;8.052;2023-07-13T11:39:02;100729.00;;;28.10
11849;BMP180;5983;49.966;8.052;2023-07-13T11:41:35;100724.00;;;27.90
11849;BMP180;5983;49.966;8.052;2023-07-13T11:44:13;100730.00;;;27.70
11849;BMP180;5983;49.966;8.052;2023-07-13T11:46:46;100719.00;;;27.50
11849;BMP180;5983;49.966;8.052;2023-07-13T11:49:16;100718.00;;;27.40
11849;BMP180;5983;49.966;8.052;2023-07-13T11:51:45;100707.00;;;27.30
11849;BMP180;5983;49.966;8.052;2023-07-13T11:54:26;100721.00;;;27.30
11849;BMP180;5983;49.966;8.052;2023-07-13T11:56:55;100716.00;;;27.30
11849;BMP180;5983;49.966;8.052;2023-07-13T11:59:23;100712.00;;;27.50
11849;BMP180;5983;49.966;8.052;2023-07-13T12:01:54;100727.00;;;27.70
11849;BMP180;5983;49.966;8.052;2023-07-13T12:04:26;100723.00;;;27.70
11849;BMP180;5983;49.966;8.052;2023-07-13T12:07:04;100730.00;;;27.70
11849;BMP180;5983;49.966;8.052;2023-07-13T12:09:34;100733.00;;;27.70
11849;BMP180;5983;49.966;8.052;2023-07-13T12:12:08;100728.00;;;27.70
11849;BMP180;5983;49.966;8.052;2023-07-13T12:14:36;100720.00;;;27.60
11849;BMP180;5983;49.966;8.052;2023-07-13T12:17:11;100720.00;;;27.50
11849;BMP180;5983;49.966;8.052;2023-07-13T12:19:41;100719.00;;;27.60
11849;BMP180;5983;49.966;8.052;2023-07-13T12:22:12;100731.00;;;27.70
11849;BMP180;5983;49.966;8.052;2023-07-13T12:24:43;100731.00;;;27.80
11849;BMP180;5983;49.966;8.052;2023-07-13T12:27:21;100726.00;;;27.80
11849;BMP180;5983;49.966;8.052;2023-07-13T12:29:52;100737.00;;;27.80
11849;BMP180;5983;49.966;8.052;2023-07-13T12:32:20;100733.00;;;27.80
11849;BMP180;5983;49.966;8.052;2023-07-13T12:34:53;100729.00;;;27.70
11849;BMP180;5983;49.966;8.052;2023-07-13T12:37:23;100746.00;;;27.70
11849;BMP180;5983;49.966;8.052;2023-07-13T12:39:52;100742.00;;;27.50
11849;BMP180;5983;49.966;8.052;2023-07-13T12:42:21;100740.00;;;27.40
11849;BMP180;5983;49.966;8.052;2023-07-13T12:44:49;100743.00;;;27.30
11849;BMP180;5983;49.966;8.052;2023-07-13T12:47:17;100743.00;;;27.30
11849;BMP180;5983;49.966;8.052;2023-07-13T12:49:48;100750.00;;;27.30
11849;BMP180;5983;49.966;8.052;2023-07-13T12:52:21;100739.00;;;27.40
11849;BMP180;5983;49.966;8.052;2023-07-13T12:54:56;100750.00;;;27.50
11849;BMP180;5983;49.966;8.052;2023-07-13T12:57:24;100750.00;;;27.40
11849;BMP180;5983;49.966;8.052;2023-07-13T12:59:52;100751.00;;;27.40
11849;BMP180;5983;49.966;8.052;2023-07-13T13:02:26;100751.00;;;27.40
11849;BMP180;5983;49.966;8.052;2023-07-13T13:04:54;100743.00;;;27.20
11849;BMP180;5983;49.966;8.052;2023-07-13T13:07:21;100753.00;;;27.10
11849;BMP180;5983;49.966;8.052;2023-07-13T13:09:48;100748.00;;;27.00
11849;BMP180;5983;49.966;8.052;2023-07-13T13:12:17;100744.00;;;26.90
11849;BMP180;5983;49.966;8.052;2023-07-13T13:14:43;100751.00;;;26.80
11849;BMP180;5983;49.966;8.052;2023-07-13T13:17:18;100746.00;;;26.90
11849;BMP180;5983;49.966;8.052;2023-07-13T13:19:46;100740.00;;;26.90
11849;BMP180;5983;49.966;8.052;2023-07-13T13:22:13;100737.00;;;26.90
11849;BMP180;5983;49.966;8.052;2023-07-13T13:24:40;100739.00;;;26.90
11849;BMP180;5983;49.966;8.052;2023-07-13T13:27:14;100743.00;;;27.00
11849;BMP180;5983;49.966;8.052;2023-07-13T13:29:44;100749.00;;;27.10
11849;BMP180;5983;49.966;8.052;2023-07-13T13:32:12;100746.00;;;27.20
11849;BMP180;5983;49.966;8.052;2023-07-13T13:34:39;100736.00;;;27.30
11849;BMP180;5983;49.966;8.052;2023-07-13T13:37:16;100740.00;;;27.50
11849;BMP180;5983;49.966;8.052;2023-07-13T13:39:44;100735.00;;;27.70
11849;BMP180;5983;49.966;8.052;2023-07-13T13:42:12;100727.00;;;27.90
11849;BMP180;5983;49.966;8.052;2023-07-13T13:44:39;100738.00;;;28.00
11849;BMP180;5983;49.966;8.052;2023-07-13T13:47:21;100736.00;;;27.90
11849;BMP180;5983;49.966;8.052;2023-07-13T13:49:50;100739.00;;;27.60
11849;BMP180;5983;49.966;8.052;2023-07-13T13:52:16;100741.00;;;27.50
11849;BMP180;5983;49.966;8.052;2023-07-13T13:54:44;100746.00;;;27.20
11849;BMP180;5983;49.966;8.052;2023-07-13T13:57:11;100750.00;;;27.10
11849;BMP180;5983;49.966;8.052;2023-07-13T13:59:38;100753.00;;;26.90
11849;BMP180;5983;49.966;8.052;2023-07-13T14:02:21;100753.00;;;26.70
11849;BMP180;5983;49.966;8.052;2023-07-13T14:04:52;100755.00;;;26.60
11849;BMP180;5983;49.966;8.052;2023-07-13T14:07:21;100754.00;;;26.50
11849;BMP180;5983;49.966;8.052;2023-07-13T14:09:47;100761.00;;;26.40
11849;BMP180;5983;49.966;8.052;2023-07-13T14:12:14;100762.00;;;26.40
11849;BMP180;5983;49.966;8.052;2023-07-13T14:14:41;100758.00;;;26.40
11849;BMP180;5983;49.966;8.052;2023-07-13T14:17:18;100768.00;;;26.40
11849;BMP180;5983;49.966;8.052;2023-07-13T14:19:47;100766.00;;;26.30
11849;BMP180;5983;49.966;8.052;2023-07-13T14:22:16;100775.00;;;26.30
11849;BMP180;5983;49.966;8.052;2023-07-13T14:24:43;100757.00;;;26.20
11849;BMP180;5983;49.966;8.052;2023-07-13T14:27:10;100767.00;;;26.20